Colorado Fatal


#1

flightaware.com/live/flight/N5476P

Looks like they tried to fly towards 1/4mi fog with ceilings 100ft or less…

NOUS53 KGLD 241814 CCA
OAVGLD

NOTIFICATION REPORT
NATIONAL WEATHER SERVICE GOODLAND KS
1103 PM MDT SUN AUG 24 2008

TO: FORENSIC SERVICES MANAGER (W/OS52)
NATIONAL WEATHER SERVICE
C/O TELECOMMUNICATIONS GATEWAY
SILVER SPRING, MARYLAND 20910

INFO NWS CRH…ATTN RAM

ALPHA UNKNOWN AT THIS TIME
PIPER PA-24
N5476P

BRAVO 1/4 MILE EAST OF YUMA, CO AIRPORT
08-24-08
1515Z

CHARLIE SPECIFIC DETAILS REGARDING PURPOSE OF FLIGHT ARE UNKNOWN AT
THIS TIME. PLANE CRASHED ON APPROACH TO YUMA AIRPORT (2V6)
3 ON BOARD, 3 FATALITIES.

DELTA KAKO 241053Z AUTO 08007KT 1/4SM FG VV001 14/14 A3016 RMK AO2
SLP168 T01440139

     KAKO 241153Z AUTO 10008KT 1/4SM FG VV001 14/14 A3018 RMK AO2  
     SLP177 T01440139 10178 20139 53001  
  
     KAKO 241253Z AUTO 13015KT 1/4SM FG VV001 14/14 A3020 RMK AO2  
     SLP186 T01390139  

     KAKO 241353Z AUTO 13013KT 1/4SM FG OVC001 14/14 A3020 RMK     
     AO2 SLP188 P0001 T01440144  

     KAKO 241453Z AUTO 13015KT 1/4SM FG VV001 14/14 A3021 RMK AO2  
     SLP191 60001 T01440144 51009  

     KAKO 241526Z AUTO 14013G19KT 1 1/4SM BR OVC001 15/14 A3021    
     RMK AO2  

ECHO KSNY 241128Z 241212 15012KT 4SM BR SCT002 OVC004
TEMPO 1215 1SM BR BKN002
FM1600 15012KT P6SM SCT120
FM1800 15014KT P6SM SCT050 SCT120
FM2200 15014KT P6SM BKN050
TEMPO 2202 VRB30G40KT 5SM -TSRAGS BKN040CB
FM0300 16010KT P6SM SCT120 BKN250
FM0900 16008KT 5SM BR BKN008=

     KSNY 241308Z 241312 15012KT P6SM SCT012  
       TEMPO 1416 BKN012  
     FM1600 15012KT P6SM SCT120  
     FM1800 15014KT P6SM SCT050 SCT120   
     FM2200 15014KT P6SM BKN050  
      TEMPO 2202 VRB30G40KT 5SM -TSRAGS BKN040CB            
     FM0300 16010KT P6SM SCT120 BKN250  
     FM0900 16008KT 5SM BR BKN008=  

     KSNY 241358Z 241312 15015KT P6SM SCT004 BKN012  
       TEMPO 1416 OVC004  
     FM1600 15012KT P6SM SCT012 SCT120  
     FM1800 15014KT P6SM SCT050 SCT120   
     FM2200 15014KT P6SM BKN050  
      TEMPO 2202 VRB30G40KT 5SM -TSRAGS BKN040CB  
     FM0300 16010KT P6SM SCT120 BKN250  
     FM0900 16008KT 5SM BR BKN008=  

     KSNY 241428Z 241312 15015KT P6SM SCT004 BKN012  
       TEMPO 1416 3SM BR OVC002  
     FM1600 15012KT P6SM SCT012 SCT120  
     FM1800 15014KT P6SM SCT050 SCT120   
     FM2200 15014KT P6SM BKN050  
      TEMPO 2202 VRB30G40KT 5SM -TSRAGS BKN040CB  
     FM0300 16010KT P6SM SCT120 BKN250  
     FM0900 16008KT 5SM BR BKN008=  

FOXTROT WINDS ALOFT FROM KGLD WSR-88D
4KFT MSL 120/13
5KFT MSL 130/11
6KFT MSL 130/09
7KFT MSL 110/06

GOLF WAUS45 KKCI 241445
SLCS WA 241445
AIRMET SIERRA UPDT 3 FOR IFR VALID UNTIL 242100
AIRMET IFR…WY CO
FROM 70SW RAP TO SNY TO GLD TO 50SW GLD TO 50 NW LAA TO 30
WNW DEN TO DDY TO 70SW RAP
CIG BLW 010/VIS BLOW 3SM BR/FG/HZ. CONDS ENDG 16-18Z

HOTEL UNKN

FOLTZ…FORECASTER…WFO GOODLAND KS


#2

they crash?


#3

disregard that question lol